createdAt,value
2023-02-01T00:00:28.071Z,99690.50
2023-02-01T00:04:49.675Z,99696.00
2023-02-01T00:08:55.533Z,99716.76
2023-02-01T00:12:58.732Z,99719.71
2023-02-01T00:17:00.793Z,99731.80
2023-02-01T00:21:05.356Z,99730.36
2023-02-01T00:25:08.243Z,99732.38
2023-02-01T00:29:16.428Z,99719.98
2023-02-01T00:33:18.454Z,99724.73
2023-02-01T00:37:22.217Z,99721.19
2023-02-01T00:41:33.262Z,99725.89
2023-02-01T01:11:42.926Z,99753.20
2023-02-01T01:15:46.461Z,99750.10
2023-02-01T01:19:53.185Z,99735.93
2023-02-01T01:29:28.386Z,99722.95
2023-02-01T01:33:58.644Z,99738.30
2023-02-01T01:38:03.048Z,99766.80
2023-02-01T01:42:06.148Z,99787.02
2023-02-01T01:46:09.123Z,99771.53
2023-02-01T01:50:22.035Z,99765.17
2023-02-01T01:54:28.366Z,99760.64
2023-02-01T01:58:59.831Z,99761.04
2023-02-01T02:03:19.819Z,99753.14
2023-02-01T02:07:39.845Z,99748.48
2023-02-01T02:11:43.000Z,99759.43
2023-02-01T02:16:22.969Z,99754.74
2023-02-01T02:21:47.702Z,99753.70
2023-02-01T02:26:07.390Z,99749.94
2023-02-01T02:30:16.131Z,99739.16
2023-02-01T02:34:24.641Z,99739.69
2023-02-01T02:38:47.385Z,99740.95
2023-02-01T02:43:35.586Z,99738.95
2023-02-01T02:47:47.795Z,99737.25
2023-02-01T02:52:31.407Z,99735.39
2023-02-01T02:56:53.284Z,99734.95
2023-02-01T03:05:46.989Z,99725.12
2023-02-01T03:09:50.202Z,99727.64
2023-02-01T03:14:00.957Z,99736.89
2023-02-01T03:18:11.099Z,99733.69
2023-02-01T03:22:17.524Z,99735.19
2023-02-01T03:26:21.012Z,99723.85
2023-02-01T03:30:26.450Z,99725.48
2023-02-01T03:34:28.142Z,99728.92
2023-02-01T03:44:12.626Z,99718.56
2023-02-01T03:48:17.414Z,99721.70
2023-02-01T03:52:25.486Z,99713.16
2023-02-01T03:56:28.919Z,99703.74
2023-02-01T04:00:31.792Z,99718.13
2023-02-01T04:04:34.718Z,99710.76
2023-02-01T04:08:36.518Z,99709.42
2023-02-01T04:12:39.040Z,99706.20
2023-02-01T04:16:41.458Z,99698.45
2023-02-01T04:21:34.003Z,99698.52
2023-02-01T04:25:35.675Z,99693.87
2023-02-01T04:29:37.350Z,99694.77
2023-02-01T04:33:40.189Z,99699.73
2023-02-01T04:37:41.798Z,99699.95
2023-02-01T04:42:04.129Z,99697.20
2023-02-01T04:46:05.795Z,99694.99
2023-02-01T04:50:10.712Z,99676.80
2023-02-01T04:54:12.412Z,99675.48
2023-02-01T04:58:14.039Z,99673.97
2023-02-01T05:02:15.654Z,99666.56
2023-02-01T05:06:17.761Z,99661.20
2023-02-01T05:10:19.325Z,99663.12
2023-02-01T05:14:21.230Z,99663.58
2023-02-01T05:18:22.819Z,99658.94
2023-02-01T05:22:24.628Z,99664.83
2023-02-01T05:26:26.352Z,99662.52
2023-02-01T05:30:28.014Z,99658.29
2023-02-01T05:34:30.661Z,99660.82
2023-02-01T05:38:38.699Z,99653.54
2023-02-01T05:42:40.315Z,99653.03
2023-02-01T05:46:42.044Z,99647.27
2023-02-01T05:50:44.533Z,99637.09
2023-02-01T05:54:50.014Z,99638.88
2023-02-01T05:59:18.623Z,99643.07
2023-02-01T06:03:20.311Z,99644.55
2023-02-01T06:07:22.410Z,99636.77
2023-02-01T06:11:32.344Z,99637.66
2023-02-01T06:15:35.729Z,99621.98
2023-02-01T06:19:37.286Z,99616.45
2023-02-01T06:23:38.907Z,99633.76
2023-02-01T06:27:40.610Z,99627.80
2023-02-01T06:32:10.966Z,99633.64
2023-02-01T06:36:12.714Z,99633.56
2023-02-01T06:40:14.426Z,99642.17
2023-02-01T06:44:17.182Z,99638.70
2023-02-01T06:48:19.110Z,99652.85
2023-02-01T06:52:20.919Z,99651.24
2023-02-01T06:56:23.220Z,99653.66
2023-02-01T07:00:25.804Z,99654.37
2023-02-01T07:04:28.839Z,99652.98
2023-02-01T07:08:33.946Z,99651.27
2023-02-01T07:12:36.189Z,99655.30
2023-02-01T07:16:38.937Z,99659.05
2023-02-01T07:20:41.275Z,99661.24
2023-02-01T07:24:42.901Z,99657.84
2023-02-01T07:28:48.418Z,99658.86
2023-02-01T07:32:50.112Z,99653.17
2023-02-01T07:36:51.877Z,99665.41
2023-02-01T07:41:12.107Z,99650.83
2023-02-01T08:01:24.853Z,99642.28
2023-02-01T08:05:28.319Z,99636.98
2023-02-01T08:09:31.722Z,99637.92
2023-02-01T08:13:36.767Z,99635.48
2023-02-01T08:17:39.077Z,99648.96
2023-02-01T08:21:40.816Z,99645.21
2023-02-01T08:25:42.716Z,99643.08
2023-02-01T08:29:44.669Z,99643.27
2023-02-01T08:33:51.698Z,99632.28
2023-02-01T08:37:53.516Z,99643.12
2023-02-01T08:42:13.820Z,99642.70
2023-02-01T08:46:16.882Z,99637.14
2023-02-01T08:50:20.055Z,99645.42
2023-02-01T08:54:22.711Z,99637.02
2023-02-01T08:58:24.585Z,99641.34
2023-02-01T09:02:27.480Z,99635.71
2023-02-01T09:06:29.559Z,99631.23
2023-02-01T09:10:35.067Z,99630.86
2023-02-01T09:14:37.963Z,99631.35
2023-02-01T09:18:50.428Z,99633.08
2023-02-01T09:23:02.193Z,99628.98
2023-02-01T09:27:04.713Z,99627.03
2023-02-01T09:31:08.359Z,99620.26
2023-02-01T09:35:10.555Z,99610.62
2023-02-01T09:39:15.705Z,99607.19
2023-02-01T09:43:48.584Z,99601.94
2023-02-01T09:47:58.333Z,99591.92
2023-02-01T09:52:05.852Z,99595.63
2023-02-01T09:56:14.398Z,99588.06
2023-02-01T10:00:26.902Z,99577.19
2023-02-01T10:04:29.363Z,99572.70
2023-02-01T10:08:40.730Z,99571.12
2023-02-01T10:13:04.244Z,99563.23
2023-02-01T10:17:28.416Z,99557.41
2023-02-01T10:22:00.923Z,99544.95
2023-02-01T10:26:11.768Z,99548.85
2023-02-01T10:30:14.070Z,99541.61
2023-02-01T10:34:23.407Z,99534.86
2023-02-01T10:38:29.448Z,99514.71
2023-02-01T10:42:32.215Z,99513.82
2023-02-01T10:46:35.972Z,99508.52
2023-02-01T10:50:41.233Z,99504.42
2023-02-01T10:54:43.565Z,99503.04
2023-02-01T10:58:48.720Z,99499.25
2023-02-01T11:02:51.912Z,99493.12
2023-02-01T11:07:08.113Z,99485.86
2023-02-01T11:11:12.576Z,99488.77
2023-02-01T11:15:19.676Z,99484.02
2023-02-01T11:19:21.927Z,99479.09
2023-02-01T11:23:27.241Z,99481.98
2023-02-01T11:27:29.956Z,99483.46
2023-02-01T11:31:34.575Z,99476.77
2023-02-01T11:35:40.500Z,99481.30
2023-02-01T11:39:53.429Z,99465.30
2023-02-01T11:44:02.019Z,99482.80
2023-02-01T11:48:15.059Z,99474.11
2023-02-01T11:52:26.658Z,99468.73
2023-02-01T11:56:58.543Z,99470.64
2023-02-01T12:01:19.102Z,99478.00
2023-02-01T12:05:36.200Z,99463.67
2023-02-01T12:09:58.296Z,99467.98
2023-02-01T12:14:04.610Z,99482.66
2023-02-01T12:18:28.197Z,99484.07
2023-02-01T12:22:43.092Z,99482.27
2023-02-01T12:26:59.750Z,99488.86
2023-02-01T12:31:17.069Z,99493.02
2023-02-01T12:35:39.552Z,99506.52
2023-02-01T12:39:47.590Z,99509.16
2023-02-01T12:43:52.584Z,99512.84
2023-02-01T12:48:04.434Z,99526.31
2023-02-01T12:52:14.475Z,99519.34
2023-02-01T12:56:35.508Z,99507.64
2023-02-01T13:01:03.235Z,99511.58
2023-02-01T13:05:21.465Z,99503.79
2023-02-01T13:09:39.344Z,99512.38
2023-02-01T13:14:10.976Z,99533.95
2023-02-01T13:18:19.791Z,99533.35
2023-02-01T13:22:32.414Z,99552.52
2023-02-01T13:26:34.615Z,99535.29
2023-02-01T13:31:05.213Z,99539.86
2023-02-01T13:35:19.441Z,99537.95
2023-02-01T13:39:43.833Z,99544.68
2023-02-01T13:43:52.127Z,99526.02
2023-02-01T13:47:58.028Z,99532.87
2023-02-01T13:52:00.811Z,99542.34
2023-02-01T13:56:10.146Z,99540.10
2023-02-01T14:00:32.668Z,99544.16
2023-02-01T14:04:49.511Z,99545.11
2023-02-01T14:09:13.217Z,99535.77
2023-02-01T14:13:42.216Z,99530.34
2023-02-01T14:17:44.828Z,99533.69
2023-02-01T14:54:36.569Z,99529.48
2023-02-01T14:59:01.738Z,99530.83
2023-02-01T15:03:38.377Z,99529.00
2023-02-01T15:07:40.819Z,99532.42
2023-02-01T15:11:55.532Z,99512.16
2023-02-01T15:16:12.305Z,99514.73
2023-02-01T15:20:22.053Z,99517.98
2023-02-01T15:24:26.882Z,99540.16
2023-02-01T15:28:29.092Z,99541.76
2023-02-01T15:32:32.777Z,99540.50
2023-02-01T15:36:35.873Z,99536.39
2023-02-01T15:40:38.185Z,99540.85
2023-02-01T15:44:47.002Z,99536.75
2023-02-01T15:48:55.414Z,99540.48
2023-02-01T15:52:58.884Z,99551.70
2023-02-01T15:57:04.170Z,99563.67
2023-02-01T16:01:11.653Z,99553.08
2023-02-01T16:05:46.580Z,99546.42
2023-02-01T16:09:55.295Z,99545.98
2023-02-01T16:13:58.736Z,99548.20
2023-02-01T16:18:01.901Z,99541.47
2023-02-01T16:22:04.004Z,99541.41
2023-02-01T16:26:06.917Z,99539.09
2023-02-01T16:30:11.335Z,99536.60
2023-02-01T16:34:20.694Z,99532.14
2023-02-01T16:38:24.499Z,99520.54
2023-02-01T16:42:27.426Z,99519.18
2023-02-01T16:46:35.829Z,99512.45
2023-02-01T16:55:25.737Z,99494.06
2023-02-01T17:04:46.664Z,99473.10
2023-02-01T17:13:37.038Z,99451.46
2023-02-01T17:22:29.997Z,99447.17
2023-02-01T17:26:34.278Z,99444.84
2023-02-01T17:30:38.467Z,99437.90
2023-02-01T17:34:40.069Z,99441.70
2023-02-01T17:39:03.963Z,99435.05
2023-02-01T17:43:12.311Z,99436.45
2023-02-01T17:47:16.099Z,99434.60
2023-02-01T17:56:48.185Z,99423.16
2023-02-01T18:00:50.160Z,99419.79
2023-02-01T18:04:52.290Z,99399.69
2023-02-01T18:08:53.934Z,99397.37
2023-02-01T18:12:57.957Z,99379.90
2023-02-01T18:16:59.563Z,99364.44
2023-02-01T18:21:22.039Z,99351.74
2023-02-01T18:25:26.472Z,99346.11
2023-02-01T18:29:28.239Z,99340.19
2023-02-01T18:33:29.827Z,99331.63
2023-02-01T18:37:47.190Z,99323.93
2023-02-01T18:41:51.225Z,99317.92
2023-02-01T18:45:54.641Z,99302.17
2023-02-01T18:50:22.749Z,99292.54
2023-02-01T18:54:25.542Z,99285.45
2023-02-01T18:58:27.630Z,99268.11
2023-02-01T19:02:56.317Z,99275.13
2023-02-01T19:07:00.337Z,99270.20
2023-02-01T19:11:14.902Z,99253.69
2023-02-01T19:15:17.775Z,99247.39
2023-02-01T19:19:19.455Z,99256.98
2023-02-01T19:47:20.873Z,99352.30
2023-02-01T19:51:23.810Z,99347.24
2023-02-01T19:55:26.580Z,99344.30
2023-02-01T20:36:19.923Z,99378.45
2023-02-01T20:41:12.653Z,99391.13
2023-02-01T20:45:14.642Z,99375.27
2023-02-01T20:49:27.759Z,99391.19
2023-02-01T20:53:30.162Z,99396.44
2023-02-01T21:03:19.334Z,99407.94
2023-02-01T21:08:13.780Z,99424.13
2023-02-01T21:12:15.556Z,99425.75
2023-02-01T21:17:03.093Z,99437.60
2023-02-01T21:21:06.979Z,99428.55
2023-02-01T21:25:15.023Z,99436.55
2023-02-01T21:29:17.280Z,99445.71
2023-02-01T21:33:18.893Z,99467.88
2023-02-01T21:37:24.998Z,99470.09
2023-02-01T21:41:46.196Z,99471.83
2023-02-01T21:45:51.316Z,99477.47
2023-02-01T21:49:58.344Z,99486.93
2023-02-01T21:54:00.971Z,99484.21
2023-02-01T21:58:11.984Z,99500.59
2023-02-01T22:02:15.974Z,99505.38
2023-02-01T22:07:01.216Z,99512.77
2023-02-01T22:11:03.431Z,99507.39
2023-02-01T22:15:07.619Z,99516.20
2023-02-01T22:19:11.781Z,99517.99
2023-02-01T22:23:40.568Z,99518.36
2023-02-01T22:28:32.388Z,99518.58
2023-02-01T22:32:04.067Z,99521.32
2023-02-01T22:36:07.232Z,99508.85
2023-02-01T22:40:13.079Z,99510.08
2023-02-01T22:44:14.652Z,99517.88
2023-02-01T22:49:06.574Z,99509.40
2023-02-01T22:53:08.246Z,99523.77
2023-02-01T22:57:17.449Z,99522.45
2023-02-01T23:01:19.127Z,99512.35
2023-02-01T23:05:21.641Z,99517.20
2023-02-01T23:09:25.444Z,99515.09
2023-02-01T23:13:54.483Z,99533.90
2023-02-01T23:17:56.552Z,99536.88
2023-02-01T23:21:58.203Z,99538.80
2023-02-01T23:26:04.052Z,99533.71
2023-02-01T23:30:08.967Z,99535.59
2023-02-01T23:35:16.904Z,99540.96
2023-02-01T23:39:18.409Z,99537.05
2023-02-01T23:48:06.761Z,99537.06
2023-02-01T23:52:12.900Z,99536.81
2023-02-01T23:56:20.594Z,99528.06
